Ana Sayfa
METAR-TAF:

METAR-TAF

Havaalanları :

Kasane, Botsvana

Enlem: 17-49S, Boylam: 025-09E, yükseklik: 968 m

Güncel hava durumu gözlemi

Rapor saat 08:00 UTC de 28 dakika önce yapıldı.
Rüzgar doğudan 11 kt
Sıcaklık 24°C
Nem 36%
Basınç 1024 hPa
Görüş mesafesi 10 km veya daha fazla
1500 m altında bulut yok ve kümülonimbus yok

METAR: FBKE 140800Z 09011KT CAVOK 24/08 Q1024

Saat: 10:28 (08:28 UTC)

Tahmin

Rapor saat 03:00 UTC de 5 saat ve 28 dakika önce yapıldı.
Ayın 14'si saat 06 UTC'den ayın 14'si saat 15 UTC'ye kadar geçerli Tahmin
Rüzgar kuzeydoğudan 15 kt
Görüş mesafesi 10 km veya daha fazla
1500 m altında bulut yok ve kümülonimbus yok

TAF: FBKE 140300Z 1406/1415 05015KT CAVOK

4.000'den fazla havaalanı için hava durumu gözlemleri ve tahminleri (METAR ve TAF raporları).

Kullanılabilir istasyonlar harita üzerinde sarı ve kırmızı noktalarla gösterilir.

İstasyonun adını görmek için fareyi noktanın üzerinde gezdirin.

Sonrasında hava gözlem ve tahminlerini görmek için tıklayın.

Haritayı değiştirmek için: yaklaştırmak için siyah artı işaretli yeşil düğmeye ve uzaklaştırmak için de eksi işaretli düğmeye hızla tıklayın; bitişik haritalar için yeşil okları kullanın.


METAR-TAF: